Time;durP1;ratioP1;P1;durP2;ratioP2;P2;SDS_P1;SDS_P2;PMS_P1;PMS_P2;Temp;Humidity;BMP_temperature;BMP_pressure;BME280_temperature;BME280_humidity;BME280_pressure;Samples;Min_cycle;Max_cycle;Signal;HPM_P1;HPM_P2
2022/11/08 00:02:19;;;;;;;1.17;0.70;;;;;;;7.41;100.00;100099.84;5063733;28;20515;-59
2022/11/08 00:04:46;;;;;;;0.50;0.30;;;;;;;7.59;100.00;100095.97;5059451;28;20508;-58
2022/11/08 00:15:28;;;;;;;1.53;1.03;;;;;;;7.44;100.00;100099.78;5056656;28;20497;-58
2022/11/08 00:17:55;;;;;;;36.30;3.00;;;;;;;7.51;100.00;100096.09;5060062;28;20542;-58
2022/11/08 00:20:21;;;;;;;0.60;0.60;;;;;;;7.36;100.00;100088.47;5063579;28;20451;-58
2022/11/08 00:22:47;;;;;;;1.47;1.00;;;;;;;7.34;100.00;100088.50;5044789;28;20455;-58
2022/11/08 00:25:14;;;;;;;1.33;1.23;;;;;;;7.24;100.00;100093.97;5054228;28;20439;-58
2022/11/08 00:27:40;;;;;;;1.30;1.03;;;;;;;7.12;100.00;100092.41;5060302;28;20470;-58
2022/11/08 00:30:07;;;;;;;1.57;1.00;;;;;;;7.07;100.00;100096.94;5056763;28;20457;-58
2022/11/08 00:32:34;;;;;;;16.83;0.70;;;;;;;7.16;100.00;100104.72;5066446;28;20457;-58
2022/11/08 00:35:00;;;;;;;33.47;1.30;;;;;;;6.95;100.00;100105.06;5056487;28;20489;-58
2022/11/08 00:37:26;;;;;;;4.53;1.07;;;;;;;7.19;100.00;100099.34;5058536;28;20475;-58
2022/11/08 00:39:53;;;;;;;4.20;1.63;;;;;;;7.19;100.00;100103.78;5061947;28;20948;-58
2022/11/08 00:42:19;;;;;;;3.87;2.17;;;;;;;7.37;100.00;100101.66;5060394;28;20457;-58
2022/11/08 00:44:45;;;;;;;1.40;1.30;;;;;;;7.32;100.00;100098.25;5055967;28;20449;-58
2022/11/08 00:47:12;;;;;;;4.40;4.10;;;;;;;7.18;100.00;100102.03;5059004;28;20477;-58
2022/11/08 00:49:38;;;;;;;18.93;4.13;;;;;;;7.17;100.00;100102.94;5063146;28;20876;-58
2022/11/08 00:52:05;;;;;;;2.20;1.93;;;;;;;7.12;100.00;100108.28;5056339;28;20450;-58
2022/11/08 00:54:31;;;;;;;8.00;2.97;;;;;;;7.11;100.00;100101.25;5060537;28;20570;-58
2022/11/08 00:56:58;;;;;;;6.70;1.83;;;;;;;7.01;100.00;100094.41;5049404;28;20503;-58
2022/11/08 00:59:24;;;;;;;2.30;1.10;;;;;;;7.02;100.00;100104.06;5062862;28;20521;-58
2022/11/08 01:01:50;;;;;;;2.97;1.10;;;;;;;6.83;100.00;100080.59;5060480;28;20460;-58
2022/11/08 01:04:18;;;;;;;9.83;1.43;;;;;;;6.85;100.00;100085.84;5055831;28;20970;-58
2022/11/08 01:06:45;;;;;;;3.53;2.30;;;;;;;6.78;100.00;100077.16;5057932;28;20494;-58
2022/11/08 01:09:12;;;;;;;2.40;2.20;;;;;;;6.91;100.00;100080.47;5062800;28;20462;-58
2022/11/08 01:11:44;;;;;;;4.47;2.37;;;;;;;7.45;100.00;100068.91;5060889;28;20511;-58
2022/11/08 01:14:11;;;;;;;2.67;2.50;;;;;;;7.24;100.00;100072.81;5055858;28;20449;-58
2022/11/08 01:16:39;;;;;;;1.70;1.60;;;;;;;7.07;100.00;100076.66;5056344;28;20544;-58
2022/11/08 01:19:05;;;;;;;1.67;1.40;;;;;;;7.05;100.00;100072.31;5062579;28;20496;-58
2022/11/08 01:21:31;;;;;;;2.20;2.10;;;;;;;7.33;100.00;100070.03;5061917;28;20453;-58
2022/11/08 01:23:58;;;;;;;6.93;3.23;;;;;;;7.27;100.00;100073.66;5055380;28;20454;-58
2022/11/08 01:26:27;;;;;;;2.67;1.90;;;;;;;7.16;100.00;100072.13;5049389;28;20467;-58
2022/11/08 01:28:57;;;;;;;1.27;1.17;;;;;;;7.53;100.00;100066.97;5043540;28;20446;-58
2022/11/08 01:31:27;;;;;;;1.03;1.03;;;;;;;7.53;100.00;100065.22;5055213;28;20511;-58
2022/11/08 01:33:55;;;;;;;1.07;0.80;;;;;;;7.34;100.00;100062.06;5059497;28;20451;-58
2022/11/08 01:36:24;;;;;;;1.13;0.63;;;;;;;7.50;100.00;100059.13;5061905;28;20501;-58
2022/11/08 01:38:52;;;;;;;0.70;0.67;;;;;;;7.22;100.00;100066.72;5057820;28;20953;-59
2022/11/08 01:41:20;;;;;;;1.90;1.00;;;;;;;7.19;100.00;100064.13;5055677;28;20451;-58
2022/11/08 01:43:56;;;;;;;0.87;0.87;;;;;;;6.88;100.00;100053.25;5059775;28;20454;-58
2022/11/08 01:46:38;;;;;;;0.60;0.60;;;;;;;6.97;100.00;100050.41;5062168;28;20520;-58
2022/11/08 01:49:19;;;;;;;0.43;0.40;;;;;;;6.94;100.00;100045.19;5061475;28;20495;-58
2022/11/08 01:52:04;;;;;;;3.00;0.73;;;;;;;7.00;100.00;100050.38;5060675;28;20940;-58
2022/11/08 01:54:55;;;;;;;1.00;0.93;;;;;;;7.00;100.00;100053.03;5059665;28;20847;-58
2022/11/08 01:58:08;;;;;;;2.07;0.90;;;;;;;7.02;100.00;100059.16;5062288;28;20842;-58
2022/11/08 02:00:37;;;;;;;1.47;0.83;;;;;;;7.03;100.00;100064.41;5062384;28;20510;-58
2022/11/08 02:03:07;;;;;;;0.70;0.70;;;;;;;7.06;100.00;100064.34;5056269;28;20943;-58
2022/11/08 02:05:33;;;;;;;0.97;0.97;;;;;;;6.94;100.00;100067.19;5055731;28;20446;-58
2022/11/08 02:08:10;;;;;;;0.30;0.20;;;;;;;6.93;100.00;100054.91;5060052;28;20467;-59
2022/11/08 02:10:39;;;;;;;2.10;0.90;;;;;;;6.92;100.00;100049.63;5062254;28;20842;-59
2022/11/08 02:13:08;;;;;;;0.67;0.67;;;;;;;6.92;100.00;100045.22;5057682;28;20469;-59
2022/11/08 02:15:40;;;;;;;0.70;0.57;;;;;;;6.90;100.00;100048.78;5054938;28;20533;-58
2022/11/08 02:18:07;;;;;;;4.40;1.10;;;;;;;6.96;100.00;100048.69;5057000;28;20458;-58
2022/11/08 02:20:34;;;;;;;0.93;0.67;;;;;;;7.01;100.00;100045.06;5061679;28;20505;-58
2022/11/08 02:23:20;;;;;;;0.57;0.50;;;;;;;6.86;100.00;100039.19;5040954;28;20513;-59
2022/11/08 02:25:46;;;;;;;1.23;1.23;;;;;;;6.93;100.00;100033.75;5042578;28;20442;-58
2022/11/08 02:28:13;;;;;;;0.70;0.30;;;;;;;6.95;100.00;100033.72;5061941;28;20540;-59
2022/11/08 02:30:39;;;;;;;0.70;0.70;;;;;;;6.91;100.00;100026.75;5056452;28;20763;-59
2022/11/08 02:33:21;;;;;;;1.50;1.10;;;;;;;6.75;100.00;100027.03;5064195;28;20450;-59
2022/11/08 02:35:50;;;;;;;0.50;0.50;;;;;;;6.50;100.00;100023.94;5058499;28;20493;-59
2022/11/08 02:38:17;;;;;;;0.70;0.70;;;;;;;6.66;100.00;100024.53;5055225;28;20454;-60
2022/11/08 02:40:53;;;;;;;0.70;0.60;;;;;;;6.80;100.00;100032.22;5057595;28;20451;-58
2022/11/08 02:43:21;;;;;;;1.47;0.70;;;;;;;6.72;100.00;100028.88;5061535;28;20504;-58
2022/11/08 02:45:48;;;;;;;0.60;0.53;;;;;;;6.94;100.00;100013.50;5060496;28;20874;-59
2022/11/08 02:48:15;;;;;;;1.77;0.60;;;;;;;6.95;100.00;100018.75;5055240;28;20454;-58
2022/11/08 02:50:42;;;;;;;1.90;0.70;;;;;;;6.94;100.00;100011.72;5055778;28;20835;-59
2022/11/08 02:53:09;;;;;;;0.60;0.57;;;;;;;6.61;100.00;100009.69;5052139;28;21240;-59
2022/11/08 02:55:36;;;;;;;1.47;0.90;;;;;;;6.90;100.00;100010.03;5061124;28;20539;-58
2022/11/08 02:58:03;;;;;;;1.07;0.57;;;;;;;6.64;100.00;100015.78;5054582;28;20453;-58
2022/11/08 03:00:30;;;;;;;0.93;0.93;;;;;;;6.53;100.00;100010.66;5056123;28;20959;-58
2022/11/08 03:02:57;;;;;;;0.40;0.40;;;;;;;6.76;100.00;100004.13;5065046;28;20508;-58
2022/11/08 03:05:25;;;;;;;0.63;0.60;;;;;;;6.37;100.00;100005.69;5065513;28;20889;-58
2022/11/08 03:07:53;;;;;;;0.83;0.83;;;;;;;6.58;100.00;99992.13;5065022;28;20522;-58
2022/11/08 03:10:20;;;;;;;1.33;1.23;;;;;;;6.57;100.00;99981.56;5065405;28;20997;-58
2022/11/08 03:12:46;;;;;;;0.80;0.40;;;;;;;6.75;100.00;99974.22;5058714;28;20472;-58
2022/11/08 03:15:13;;;;;;;0.80;0.80;;;;;;;6.82;100.00;99988.16;5058911;28;20453;-59
2022/11/08 03:17:40;;;;;;;0.50;0.40;;;;;;;6.76;100.00;99988.28;5064033;28;20494;-59
2022/11/08 03:20:07;;;;;;;1.57;1.47;;;;;;;6.62;100.00;99979.75;5065051;28;20454;-58
2022/11/08 03:22:33;;;;;;;0.60;0.47;;;;;;;6.79;100.00;99982.94;5047051;28;20455;-58
2022/11/08 03:24:59;;;;;;;1.17;1.17;;;;;;;6.72;100.00;99984.84;5051892;28;20457;-59
2022/11/08 03:27:26;;;;;;;0.97;0.30;;;;;;;6.83;100.00;99982.84;5059681;28;20474;-58
2022/11/08 03:29:52;;;;;;;0.43;0.43;;;;;;;6.78;100.00;99990.00;5058071;28;20451;-58
2022/11/08 03:32:18;;;;;;;0.63;0.50;;;;;;;6.72;100.00;99983.97;5069099;28;20461;-59
2022/11/08 03:34:45;;;;;;;0.70;0.60;;;;;;;6.91;100.00;99984.50;5057906;28;20516;-59
2022/11/08 03:37:11;;;;;;;1.43;1.03;;;;;;;6.78;100.00;99992.63;5062334;28;20495;-58
2022/11/08 03:39:37;;;;;;;0.50;0.47;;;;;;;6.71;100.00;99985.69;5053195;28;20799;-59
2022/11/08 03:42:05;;;;;;;0.50;0.40;;;;;;;6.80;100.00;99982.03;5062424;28;20458;-59
2022/11/08 03:44:31;;;;;;;0.60;0.60;;;;;;;6.81;100.00;99982.00;5064219;28;21024;-59
2022/11/08 03:46:59;;;;;;;0.40;0.30;;;;;;;6.36;100.00;99959.94;5060259;28;20461;-58
2022/11/08 03:49:26;;;;;;;0.40;0.30;;;;;;;6.65;100.00;99956.78;5057632;28;20465;-59
2022/11/08 03:51:53;;;;;;;0.40;0.30;;;;;;;6.48;100.00;99951.81;5052403;28;20466;-59
2022/11/08 03:54:19;;;;;;;0.50;0.40;;;;;;;6.58;100.00;99965.72;5049338;28;20516;-59
2022/11/08 03:56:46;;;;;;;0.40;0.30;;;;;;;6.64;100.00;99954.16;5061321;28;20494;-59
2022/11/08 03:59:12;;;;;;;0.60;0.40;;;;;;;6.45;100.00;99958.91;5064385;28;20454;-59
2022/11/08 04:01:39;;;;;;;0.60;0.60;;;;;;;6.62;100.00;99954.19;5060482;28;20457;-59
2022/11/08 04:04:06;;;;;;;0.63;0.47;;;;;;;6.41;100.00;99966.00;5057170;28;20458;-58
2022/11/08 04:06:32;;;;;;;0.50;0.37;;;;;;;6.50;100.00;99965.84;5060892;28;20497;-58
2022/11/08 04:08:59;;;;;;;0.47;0.37;;;;;;;6.85;100.00;99966.97;5063795;28;20477;-59
2022/11/08 04:16:55;;;;;;;0.53;0.53;;;;;;;6.75;100.00;99958.38;5056708;28;20928;-59
2022/11/08 04:22:09;;;;;;;0.53;0.53;;;;;;;6.97;100.00;99950.88;5063622;28;20848;-58
2022/11/08 04:24:36;;;;;;;0.63;0.53;;;;;;;6.75;100.00;99957.50;5057795;28;20869;-58
2022/11/08 04:27:02;;;;;;;0.70;0.70;;;;;;;7.03;100.00;99950.78;5055703;28;20463;-57
2022/11/08 04:29:29;;;;;;;1.03;0.70;;;;;;;7.07;100.00;99947.16;5058045;28;20451;-58
2022/11/08 04:31:56;;;;;;;0.73;0.73;;;;;;;7.05;100.00;99942.81;5061453;28;20508;-57
2022/11/08 04:34:22;;;;;;;0.80;0.80;;;;;;;7.09;100.00;99942.72;5062856;28;20827;-57
2022/11/08 04:36:48;;;;;;;0.40;0.30;;;;;;;7.03;100.00;99949.91;5056508;28;20494;-57
2022/11/08 04:39:15;;;;;;;0.57;0.50;;;;;;;6.93;100.00;99943.94;5058016;28;20455;-57
2022/11/08 04:41:41;;;;;;;0.40;0.30;;;;;;;6.87;100.00;99940.53;5063412;28;20473;-58
2022/11/08 04:44:14;;;;;;;1.33;0.53;;;;;;;6.52;100.00;99929.72;5062876;28;20833;-59
2022/11/08 04:46:40;;;;;;;1.70;1.10;;;;;;;6.77;100.00;99932.78;5055434;28;20971;-58
2022/11/08 04:49:07;;;;;;;0.67;0.37;;;;;;;6.81;100.00;99929.19;5056766;28;20505;-58
2022/11/08 04:51:33;;;;;;;0.30;0.20;;;;;;;6.49;100.00;99918.34;5063463;28;20516;-58
2022/11/08 04:54:01;;;;;;;0.50;0.30;;;;;;;6.62;100.00;99921.63;5063018;28;20515;-58
2022/11/08 04:56:29;;;;;;;0.50;0.50;;;;;;;6.65;100.00;99919.81;5063099;28;20498;-58
2022/11/08 04:58:58;;;;;;;0.40;0.30;;;;;;;6.89;100.00;99909.69;5062912;28;20511;-58
2022/11/08 05:01:26;;;;;;;0.60;0.50;;;;;;;6.96;100.00;99908.63;5056727;28;20504;-58
2022/11/08 05:03:53;;;;;;;1.10;1.10;;;;;;;6.95;100.00;99913.06;5056039;28;20450;-58
2022/11/08 05:06:25;;;;;;;0.60;0.57;;;;;;;6.89;100.00;99905.25;5061889;28;20467;-58
2022/11/08 05:08:54;;;;;;;0.40;0.40;;;;;;;6.53;100.00;99905.06;5062840;28;20519;-58
2022/11/08 05:11:22;;;;;;;1.80;0.63;;;;;;;6.80;100.00;99906.31;5057072;28;20963;-59
2022/11/08 05:13:50;;;;;;;0.40;0.40;;;;;;;7.03;100.00;99894.41;5056352;28;20454;-59
2022/11/08 05:16:22;;;;;;;0.30;0.20;;;;;;;6.86;100.00;99912.38;5060059;28;20552;-59
2022/11/08 05:18:50;;;;;;;2.43;0.60;;;;;;;6.79;100.00;99919.53;5062823;28;20477;-58
2022/11/08 05:24:06;;;;;;;0.57;0.57;;;;;;;6.84;100.00;99904.47;5055326;28;20442;-58
2022/11/08 05:26:34;;;;;;;0.63;0.63;;;;;;;6.64;100.00;99904.88;5044769;28;20462;-58
2022/11/08 05:29:00;;;;;;;0.50;0.40;;;;;;;7.09;100.00;99899.56;5061206;28;20459;-58
2022/11/08 05:31:27;;;;;;;0.83;0.63;;;;;;;6.71;100.00;99892.41;5061243;28;20872;-58
2022/11/08 05:33:53;;;;;;;0.30;0.20;;;;;;;7.03;100.00;99894.41;5060951;28;20455;-58
2022/11/08 05:36:20;;;;;;;0.50;0.40;;;;;;;6.94;100.00;99890.19;5060865;28;20819;-58
2022/11/08 05:38:46;;;;;;;1.67;0.70;;;;;;;6.79;100.00;99880.78;5057251;28;20445;-58
2022/11/08 05:41:16;;;;;;;0.80;0.50;;;;;;;7.03;100.00;99897.06;5055780;28;20507;-58
2022/11/08 05:43:45;;;;;;;3.37;1.13;;;;;;;6.79;100.00;99899.28;5060186;28;20508;-58
2022/11/08 05:46:11;;;;;;;7.50;1.20;;;;;;;6.59;100.00;99888.25;5062475;28;20476;-58
2022/11/08 05:48:38;;;;;;;0.57;0.57;;;;;;;6.43;100.00;99892.03;5058162;28;20454;-58
2022/11/08 05:51:04;;;;;;;0.50;0.50;;;;;;;6.50;100.00;99894.56;5055176;28;21011;-58
2022/11/08 05:53:31;;;;;;;0.50;0.40;;;;;;;6.55;100.00;99878.63;5050252;28;20541;-58
2022/11/08 05:55:59;;;;;;;1.10;0.60;;;;;;;6.25;100.00;99872.16;5062436;28;20523;-58
2022/11/08 05:58:26;;;;;;;7.53;1.60;;;;;;;6.45;100.00;99854.19;5058530;28;20566;-58
2022/11/08 06:01:04;;;;;;;0.40;0.40;;;;;;;6.65;100.00;99852.91;5055188;28;20461;-58
2022/11/08 06:03:31;;;;;;;0.50;0.50;;;;;;;6.93;100.00;99855.88;5057183;28;20450;-58
2022/11/08 06:06:10;;;;;;;1.30;1.20;;;;;;;6.96;100.00;99853.16;5062138;28;20573;-58
2022/11/08 06:08:38;;;;;;;0.73;0.57;;;;;;;6.94;100.00;99849.69;5061608;28;20506;-58
2022/11/08 06:11:07;;;;;;;1.77;1.67;;;;;;;6.99;100.00;99850.44;5055201;28;20499;-58
2022/11/08 06:13:34;;;;;;;1.10;1.00;;;;;;;7.09;100.00;99854.63;5054912;28;20948;-58
2022/11/08 06:16:09;;;;;;;0.87;0.87;;;;;;;7.13;100.00;99862.50;5061455;28;20521;-58
2022/11/08 06:18:37;;;;;;;0.80;0.70;;;;;;;7.21;100.00;99872.00;5062138;28;20449;-58
2022/11/08 06:21:06;;;;;;;0.40;0.40;;;;;;;7.21;100.00;99883.44;5057066;28;20461;-58
2022/11/08 06:23:32;;;;;;;1.70;1.63;;;;;;;7.26;100.00;99883.34;5055528;28;20450;-57
2022/11/08 06:25:59;;;;;;;1.60;1.50;;;;;;;7.25;100.00;99900.09;5052928;28;20881;-58
2022/11/08 06:28:26;;;;;;;36.87;2.00;;;;;;;7.25;100.00;99887.75;5061866;28;20512;-58
2022/11/08 06:30:53;;;;;;;1.07;0.93;;;;;;;7.14;100.00;99887.16;5058541;28;20469;-58
2022/11/08 06:33:20;;;;;;;4.83;1.83;;;;;;;7.25;100.00;99890.41;5062543;28;20508;-58
2022/11/08 06:35:46;;;;;;;1.53;1.43;;;;;;;7.24;100.00;99883.38;5060566;28;20450;-59
2022/11/08 06:38:13;;;;;;;0.87;0.80;;;;;;;7.11;100.00;99881.91;5058847;28;20910;-59
2022/11/08 06:40:40;;;;;;;1.40;1.30;;;;;;;6.93;100.00;99871.72;5061594;28;20454;-59
2022/11/08 06:43:06;;;;;;;1.70;0.77;;;;;;;6.86;100.00;99865.72;5065398;28;20450;-59
2022/11/08 06:45:33;;;;;;;0.73;0.67;;;;;;;7.04;100.00;99875.00;5062839;28;20478;-59
2022/11/08 06:48:01;;;;;;;0.70;0.60;;;;;;;7.14;100.00;99881.84;5041623;28;20454;-59
2022/11/08 06:50:29;;;;;;;0.77;0.77;;;;;;;7.12;100.00;99886.28;5063049;28;20450;-59
2022/11/08 06:53:04;;;;;;;0.50;0.43;;;;;;;7.16;100.00;99889.75;5040546;28;20462;-59
2022/11/08 06:55:31;;;;;;;0.60;0.60;;;;;;;7.16;100.00;99887.97;5063957;28;20445;-59
2022/11/08 06:57:58;;;;;;;0.80;0.70;;;;;;;7.29;100.00;99878.88;5058470;28;20498;-59
2022/11/08 07:00:25;;;;;;;0.97;0.93;;;;;;;7.37;100.00;99892.78;5059969;28;20451;-59
2022/11/08 07:02:52;;;;;;;1.20;0.90;;;;;;;7.44;100.00;99890.88;5065347;28;20459;-59
2022/11/08 07:05:20;;;;;;;1.50;1.40;;;;;;;7.32;100.00;99897.31;5064840;28;20821;-59
2022/11/08 07:07:50;;;;;;;0.90;0.90;;;;;;;7.32;100.00;99892.03;5058278;28;20515;-59
2022/11/08 07:10:19;;;;;;;1.30;1.20;;;;;;;7.52;100.00;99880.13;5058716;28;20549;-59
2022/11/08 07:12:46;;;;;;;0.50;0.50;;;;;;;7.37;100.00;99891.91;5064254;28;20454;-59
2022/11/08 07:15:13;;;;;;;1.20;0.63;;;;;;;7.28;100.00;99894.78;5065234;28;20454;-58
2022/11/08 07:17:39;;;;;;;2.20;1.27;;;;;;;7.19;100.00;99897.59;5059800;28;20551;-59
2022/11/08 07:20:07;;;;;;;0.80;0.80;;;;;;;7.25;100.00;99906.25;5058224;28;20461;-59
2022/11/08 07:22:33;;;;;;;1.23;1.13;;;;;;;7.32;100.00;99899.09;5064180;28;20460;-58
2022/11/08 07:25:00;;;;;;;0.60;0.57;;;;;;;7.17;100.00;99902.94;5058870;28;20489;-58
2022/11/08 07:27:27;;;;;;;3.63;2.57;;;;;;;7.18;100.00;99904.66;5051947;28;20470;-60
2022/11/08 07:29:53;;;;;;;1.00;0.90;;;;;;;7.06;100.00;99900.50;5065160;28;20997;-58
2022/11/08 07:32:20;;;;;;;0.50;0.50;;;;;;;7.17;100.00;99907.34;5060664;28;20945;-58
2022/11/08 07:34:46;;;;;;;0.70;0.70;;;;;;;7.34;100.00;99914.00;5057606;28;20451;-57
2022/11/08 07:37:12;;;;;;;0.97;0.97;;;;;;;7.38;100.00;99918.31;5062017;28;20495;-58
2022/11/08 07:39:39;;;;;;;1.13;1.03;;;;;;;7.53;100.00;99925.03;5064754;28;20998;-58
2022/11/08 07:42:05;;;;;;;1.30;0.93;;;;;;;7.52;100.00;99930.38;5060363;28;20458;-58
2022/11/08 07:44:31;;;;;;;1.10;0.60;;;;;;;7.46;100.00;99926.09;5057866;28;21068;-58
2022/11/08 07:46:58;;;;;;;0.90;0.80;;;;;;;7.54;100.00;99936.50;5060111;28;20481;-58
2022/11/08 07:49:24;;;;;;;1.60;1.50;;;;;;;7.58;100.00;99923.19;5064223;28;20495;-58
2022/11/08 07:51:50;;;;;;;1.07;1.00;;;;;;;7.41;100.00;99933.28;5059830;28;20454;-58
2022/11/08 07:54:17;;;;;;;0.83;0.83;;;;;;;7.64;100.00;99938.03;5049639;28;20457;-58
2022/11/08 07:56:43;;;;;;;0.57;0.57;;;;;;;7.53;100.00;99940.91;5061688;28;20475;-58
2022/11/08 07:59:10;;;;;;;0.73;0.73;;;;;;;7.46;100.00;99931.38;5064009;28;20455;-58
2022/11/08 08:01:36;;;;;;;0.40;0.40;;;;;;;7.42;100.00;99933.22;5060598;28;20462;-58
2022/11/08 08:04:03;;;;;;;1.43;1.00;;;;;;;7.44;100.00;99935.84;5056872;28;20450;-58
2022/11/08 08:06:29;;;;;;;0.63;0.60;;;;;;;7.42;100.00;99938.53;5061733;28;20528;-58
2022/11/08 08:08:56;;;;;;;1.40;1.30;;;;;;;7.61;100.00;99922.25;5053757;28;20446;-56
2022/11/08 08:11:22;;;;;;;6.57;2.37;;;;;;;7.44;100.00;99917.34;5061034;28;20454;-56
2022/11/08 08:13:49;;;;;;;0.70;0.70;;;;;;;7.28;100.00;99916.78;5066645;28;20462;-56
2022/11/08 08:16:15;;;;;;;0.83;0.70;;;;;;;7.33;100.00;99909.63;5060876;28;20524;-56
2022/11/08 08:18:41;;;;;;;3.50;1.27;;;;;;;7.40;100.00;99910.34;5063414;28;20843;-56
2022/11/08 08:21:08;;;;;;;2.43;2.23;;;;;;;7.28;100.00;99908.88;5060024;28;20457;-56
2022/11/08 08:23:34;;;;;;;0.73;0.73;;;;;;;7.47;100.00;99913.75;5056848;28;21112;-57
2022/11/08 08:26:02;;;;;;;1.50;1.40;;;;;;;7.54;100.00;99910.03;5054486;28;20486;-56
2022/11/08 08:28:28;;;;;;;2.00;1.90;;;;;;;7.56;100.00;99917.06;5063743;28;20447;-57
2022/11/08 08:30:54;;;;;;;2.70;1.30;;;;;;;7.59;100.00;99921.41;5059931;28;20950;-56
2022/11/08 08:33:21;;;;;;;1.20;0.97;;;;;;;7.51;100.00;99932.16;5063929;28;20485;-56
2022/11/08 08:35:55;;;;;;;0.80;0.80;;;;;;;7.55;100.00;99925.03;5061067;28;20477;-57
2022/11/08 08:38:22;;;;;;;0.50;0.40;;;;;;;7.66;100.00;99930.94;5056342;28;21084;-56
2022/11/08 08:40:49;;;;;;;2.50;1.60;;;;;;;7.67;100.00;99919.44;5058783;28;20474;-57
2022/11/08 08:43:15;;;;;;;1.10;1.07;;;;;;;7.56;100.00;99916.19;5063308;28;20948;-56
2022/11/08 08:45:42;;;;;;;2.40;1.20;;;;;;;7.67;100.00;99932.66;5061369;28;20454;-55
2022/11/08 08:48:09;;;;;;;1.23;1.10;;;;;;;7.78;100.00;99928.00;5056052;28;20446;-57
2022/11/08 08:50:35;;;;;;;0.80;0.70;;;;;;;7.92;100.00;99930.34;5058524;28;20455;-56
2022/11/08 08:53:04;;;;;;;0.77;0.77;;;;;;;8.10;100.00;99929.91;5052958;28;20466;-57
2022/11/08 08:55:31;;;;;;;1.10;0.60;;;;;;;8.32;100.00;99925.81;5061743;28;21005;-56
2022/11/08 08:57:57;;;;;;;2.00;1.13;;;;;;;8.02;100.00;99927.44;5055191;28;20492;-58
2022/11/08 09:00:24;;;;;;;0.80;0.80;;;;;;;8.17;100.00;99922.69;5057456;28;20455;-56
2022/11/08 09:03:11;;;;;;;0.63;0.63;;;;;;;8.16;100.00;99920.94;5058030;28;20478;-56
2022/11/08 09:05:42;;;;;;;1.50;1.40;;;;;;;8.05;100.00;99910.59;5055920;28;20952;-57
2022/11/08 09:08:10;;;;;;;1.33;1.07;;;;;;;7.81;100.00;99905.91;5059970;28;20944;-58
2022/11/08 09:10:36;;;;;;;1.67;1.57;;;;;;;7.74;100.00;99910.47;5062870;28;20454;-58
2022/11/08 09:13:03;;;;;;;2.83;2.00;;;;;;;8.06;100.00;99904.41;5059080;28;20449;-57
2022/11/08 09:15:29;;;;;;;2.30;1.63;;;;;;;8.08;100.00;99917.59;5056084;28;20476;-57
2022/11/08 09:17:56;;;;;;;1.03;1.03;;;;;;;8.10;100.00;99918.47;5059507;28;20505;-57
2022/11/08 09:20:24;;;;;;;1.43;0.70;;;;;;;8.02;100.00;99906.25;5063011;28;20529;-56
2022/11/08 09:22:50;;;;;;;1.70;1.60;;;;;;;8.14;100.00;99902.44;5042785;28;20456;-56
2022/11/08 09:25:17;;;;;;;1.23;1.13;;;;;;;8.22;100.00;99902.25;5046081;28;20451;-56
2022/11/08 09:27:44;;;;;;;4.57;1.70;;;;;;;8.11;100.00;99896.38;5059867;28;20817;-56
2022/11/08 09:30:10;;;;;;;4.53;1.80;;;;;;;8.15;100.00;99904.19;5055894;28;20453;-57
2022/11/08 09:32:36;;;;;;;1.60;1.50;;;;;;;8.36;100.00;99916.06;5067004;28;20454;-56
2022/11/08 09:35:23;;;;;;;1.03;1.03;;;;;;;8.55;100.00;99911.16;5042097;28;20469;-55
2022/11/08 09:37:52;;;;;;;1.57;1.47;;;;;;;8.60;100.00;99912.75;5054246;28;20498;-56
2022/11/08 09:40:29;;;;;;;1.77;1.23;;;;;;;8.66;100.00;99901.13;5061303;28;20446;-56
2022/11/08 09:43:31;;;;;;;2.83;2.00;;;;;;;8.98;100.00;99902.00;5062804;28;20503;-57
2022/11/08 09:45:58;;;;;;;0.70;0.70;;;;;;;8.97;100.00;99890.53;5061708;28;20469;-56
2022/11/08 09:48:27;;;;;;;1.50;1.40;;;;;;;8.95;100.00;99899.47;5056321;28;20454;-57
2022/11/08 09:50:57;;;;;;;2.23;1.83;;;;;;;8.83;100.00;99906.84;5055129;28;20944;-55
2022/11/08 09:53:48;;;;;;;2.00;1.50;;;;;;;8.97;100.00;99902.94;5051694;28;20458;-56
2022/11/08 09:56:24;;;;;;;2.90;2.73;;;;;;;9.10;100.00;99899.03;5060909;28;20960;-56
2022/11/08 09:59:02;;;;;;;7.10;3.17;;;;;;;9.31;100.00;99897.50;5061842;28;20493;-56
2022/11/08 10:01:33;;;;;;;1.27;1.17;;;;;;;9.07;100.00;99896.47;5061142;28;20450;-57
2022/11/08 10:04:22;;;;;;;1.77;1.67;;;;;;;9.46;100.00;99897.94;5062283;28;20477;-58
2022/11/08 10:07:21;;;;;;;5.23;1.10;;;;;;;9.83;100.00;99909.19;5060760;28;20543;-57
2022/11/08 10:10:05;;;;;;;1.27;1.17;;;;;;;10.10;100.00;99910.94;5060700;28;20466;-57
2022/11/08 10:12:53;;;;;;;1.40;1.30;;;;;;;9.79;100.00;99911.06;5066389;28;20496;-56
2022/11/08 10:15:45;;;;;;;2.07;1.10;;;;;;;10.16;100.00;99915.22;5066532;28;20445;-56
2022/11/08 10:18:17;;;;;;;2.43;1.47;;;;;;;10.11;100.00;99918.00;5065347;28;20895;-56
2022/11/08 10:21:40;;;;;;;1.57;1.47;;;;;;;10.46;100.00;99922.19;5059065;28;20514;-56
2022/11/08 10:24:15;;;;;;;1.50;1.40;;;;;;;10.21;100.00;99916.81;5023287;28;20512;-57
2022/11/08 10:26:45;;;;;;;0.83;0.83;;;;;;;10.42;100.00;99917.03;5052326;28;20473;-56
2022/11/08 10:29:35;;;;;;;1.73;1.63;;;;;;;10.15;100.00;99913.47;5062252;28;20505;-56
2022/11/08 10:32:13;;;;;;;4.93;1.50;;;;;;;10.39;100.00;99910.88;5069513;28;21016;-57
2022/11/08 10:34:51;;;;;;;1.90;1.80;;;;;;;10.29;100.00;99913.91;5059129;28;20455;-56
2022/11/08 10:37:18;;;;;;;1.70;1.60;;;;;;;10.43;100.00;99908.13;5064014;28;20470;-57
2022/11/08 10:39:54;;;;;;;1.90;1.80;;;;;;;10.54;100.00;99906.81;5065442;28;21010;-57
2022/11/08 10:42:32;;;;;;;1.43;1.33;;;;;;;10.88;100.00;99909.16;5063697;28;20449;-57
2022/11/08 10:44:59;;;;;;;2.30;1.20;;;;;;;10.98;100.00;99891.97;5058821;28;20453;-56
2022/11/08 10:47:28;;;;;;;3.33;2.80;;;;;;;11.12;100.00;99893.25;5059820;28;20474;-56
2022/11/08 10:49:55;;;;;;;1.60;1.50;;;;;;;11.05;100.00;99892.59;5052247;28;21013;-57
2022/11/08 10:52:43;;;;;;;2.43;2.07;;;;;;;11.43;100.00;99888.50;5057243;28;20471;-56
2022/11/08 10:55:25;;;;;;;2.33;2.13;;;;;;;11.27;100.00;99888.22;5061916;28;20446;-58
2022/11/08 10:57:51;;;;;;;1.60;1.47;;;;;;;11.03;100.00;99888.25;5059091;28;20497;-57
2022/11/08 11:00:20;;;;;;;1.80;1.70;;;;;;;10.79;100.00;99896.19;5059919;28;20524;-56
2022/11/08 11:02:57;;;;;;;3.80;1.57;;;;;;;11.10;100.00;99885.34;5071601;28;20466;-57
2022/11/08 11:05:50;;;;;;;1.80;1.70;;;;;;;11.17;100.00;99886.81;5058180;28;20457;-57
2022/11/08 11:08:17;;;;;;;1.30;1.20;;;;;;;11.07;100.00;99881.91;5060741;28;20454;-57
2022/11/08 11:10:46;;;;;;;2.20;2.00;;;;;;;11.13;100.00;99877.22;5065228;28;20512;-58
2022/11/08 11:13:28;;;;;;;2.53;1.53;;;;;;;10.97;100.00;99871.63;5063661;28;20539;-57
2022/11/08 11:16:03;;;;;;;2.57;2.27;;;;;;;11.24;100.00;99871.50;5064834;28;20479;-57
2022/11/08 11:18:37;;;;;;;2.10;2.00;;;;;;;11.27;100.00;99876.72;5065911;28;20546;-58
2022/11/08 11:21:10;;;;;;;5.93;2.93;;;;;;;11.08;100.00;99865.00;5060287;28;20449;-56
2022/11/08 11:24:04;;;;;;;3.00;2.30;;;;;;;11.39;100.00;99868.25;5058334;28;20864;-56
2022/11/08 11:26:34;;;;;;;2.70;2.07;;;;;;;11.13;100.00;99871.91;5046479;28;20817;-56
2022/11/08 11:29:05;;;;;;;2.57;2.47;;;;;;;11.35;100.00;99861.31;5063656;28;20482;-56
2022/11/08 11:31:40;;;;;;;2.93;2.67;;;;;;;11.12;100.00;99859.53;5064863;28;20509;-57
2022/11/08 11:34:15;;;;;;;1.80;1.50;;;;;;;11.08;100.00;99867.66;5061673;28;20800;-57
2022/11/08 11:36:51;;;;;;;2.37;2.17;;;;;;;11.04;100.00;99858.94;5055921;28;20476;-57
2022/11/08 11:39:26;;;;;;;1.80;1.70;;;;;;;11.16;100.00;99862.94;5059088;28;20556;-56
2022/11/08 11:41:59;;;;;;;3.17;1.90;;;;;;;11.23;100.00;99854.66;5045899;28;20510;-57
2022/11/08 11:45:00;;;;;;;2.07;1.93;;;;;;;11.55;100.00;99856.09;5058096;28;20951;-57
2022/11/08 11:47:46;;;;;;;1.80;1.70;;;;;;;11.37;100.00;99847.94;5059973;28;21018;-57
2022/11/08 11:50:26;;;;;;;1.90;1.80;;;;;;;11.44;100.00;99850.31;5048716;28;20450;-56
2022/11/08 11:52:57;;;;;;;2.17;1.97;;;;;;;11.52;100.00;99844.69;5056887;28;20461;-56
2022/11/08 11:55:59;;;;;;;3.47;2.90;;;;;;;11.85;100.00;99845.16;5059431;28;21000;-56
2022/11/08 11:58:59;;;;;;;2.00;1.90;;;;;;;11.73;100.00;99834.97;5049078;28;20492;-57
2022/11/08 12:01:32;;;;;;;7.03;2.90;;;;;;;11.90;100.00;99839.63;5063613;28;20465;-57
2022/11/08 12:03:58;;;;;;;4.33;4.03;;;;;;;11.71;100.00;99840.34;5063851;28;20491;-58